Time;durP1;ratioP1;P1;durP2;ratioP2;P2;SDS_P1;SDS_P2;PMS_P1;PMS_P2;Temp;Humidity;BMP_temperature;BMP_pressure;BME280_temperature;BME280_humidity;BME280_pressure;Samples;Min_cycle;Max_cycle;Signal;HPM_P1;HPM_P2
2022/04/16 00:01:52;;;;;;;12.02;10.70;;;;;;;;;;5010148;28;20378;-74
2022/04/16 00:04:19;;;;;;;11.65;10.48;;;;;;;;;;5018582;28;20050;-74
2022/04/16 00:06:45;;;;;;;12.05;10.73;;;;;;;;;;5020625;28;20049;-74
2022/04/16 00:09:11;;;;;;;11.52;10.32;;;;;;;;;;5030726;28;20064;-74
2022/04/16 00:11:38;;;;;;;12.57;10.85;;;;;;;;;;5026664;28;20060;-74
2022/04/16 00:14:04;;;;;;;12.73;10.60;;;;;;;;;;5022876;28;20117;-74
2022/04/16 00:16:31;;;;;;;11.85;10.23;;;;;;;;;;5013856;28;20143;-74
2022/04/16 00:18:57;;;;;;;10.93;9.82;;;;;;;;;;5042210;28;20129;-74
2022/04/16 00:21:23;;;;;;;10.65;9.48;;;;;;;;;;5015233;28;20042;-74
2022/04/16 00:23:49;;;;;;;11.77;10.00;;;;;;;;;;5014965;28;20041;-74
2022/04/16 00:26:15;;;;;;;10.80;9.45;;;;;;;;;;5005892;28;20041;-74
2022/04/16 00:28:41;;;;;;;10.48;9.48;;;;;;;;;;5028740;28;20044;-74
2022/04/16 00:31:07;;;;;;;11.95;10.00;;;;;;;;;;5021212;28;20391;-74
2022/04/16 00:33:33;;;;;;;11.55;10.30;;;;;;;;;;5052330;28;20139;-74
2022/04/16 00:36:00;;;;;;;12.00;10.70;;;;;;;;;;5050671;28;20120;-74
2022/04/16 00:38:27;;;;;;;11.65;9.70;;;;;;;;;;5043899;28;20055;-74
2022/04/16 00:40:53;;;;;;;11.52;10.32;;;;;;;;;;5024363;28;20438;-74
2022/04/16 00:43:22;;;;;;;12.25;10.95;;;;;;;;;;5020979;28;20125;-75
2022/04/16 00:45:48;;;;;;;11.63;9.65;;;;;;;;;;5013847;28;20048;-74
2022/04/16 00:48:14;;;;;;;11.55;9.85;;;;;;;;;;5016049;28;20033;-74
2022/04/16 00:50:41;;;;;;;11.65;10.43;;;;;;;;;;5018371;28;20060;-74
2022/04/16 00:53:07;;;;;;;11.32;10.13;;;;;;;;;;5021934;28;20104;-74
2022/04/16 00:55:36;;;;;;;11.45;10.25;;;;;;;;;;5023022;28;20120;-74
2022/04/16 00:58:02;;;;;;;12.25;10.13;;;;;;;;;;5047301;28;20478;-74
2022/04/16 01:00:28;;;;;;;12.32;10.70;;;;;;;;;;5015424;28;20615;-74
2022/04/16 01:02:56;;;;;;;11.32;9.48;;;;;;;;;;5008142;28;20038;-74
2022/04/16 01:05:22;;;;;;;11.88;9.85;;;;;;;;;;5028322;28;20049;-74
2022/04/16 01:07:52;;;;;;;11.40;10.10;;;;;;;;;;5019477;28;20181;-75
2022/04/16 01:10:18;;;;;;;11.88;10.30;;;;;;;;;;5021574;28;20089;-74
2022/04/16 01:12:44;;;;;;;13.95;10.15;;;;;;;;;;5024601;28;20463;-74
2022/04/16 01:15:11;;;;;;;11.32;10.15;;;;;;;;;;5009388;28;20079;-74
2022/04/16 01:17:37;;;;;;;11.13;9.93;;;;;;;;;;5045001;28;20076;-74
2022/04/16 01:20:03;;;;;;;11.23;10.05;;;;;;;;;;5014484;28;20049;-74
2022/04/16 01:22:29;;;;;;;11.13;10.13;;;;;;;;;;5019094;28;20048;-74
2022/04/16 01:24:55;;;;;;;11.15;10.00;;;;;;;;;;5001232;28;20177;-74
2022/04/16 01:27:21;;;;;;;10.85;9.75;;;;;;;;;;5011054;28;20425;-74
2022/04/16 01:29:48;;;;;;;13.07;10.20;;;;;;;;;;5008574;28;20049;-74
2022/04/16 01:32:14;;;;;;;11.45;10.25;;;;;;;;;;5007846;28;20038;-74
2022/04/16 01:34:40;;;;;;;11.25;9.95;;;;;;;;;;5043716;28;20062;-74
2022/04/16 01:37:06;;;;;;;13.07;10.40;;;;;;;;;;5053838;28;20536;-74
2022/04/16 01:39:32;;;;;;;11.25;10.10;;;;;;;;;;5019431;28;20053;-74
2022/04/16 01:41:59;;;;;;;12.77;11.07;;;;;;;;;;5026836;28;20041;-74
2022/04/16 01:44:25;;;;;;;10.82;9.57;;;;;;;;;;5044705;28;20050;-74
2022/04/16 01:46:51;;;;;;;10.82;9.73;;;;;;;;;;5022824;28;20379;-74
2022/04/16 01:49:20;;;;;;;13.25;10.65;;;;;;;;;;5011275;28;20050;-74
2022/04/16 01:51:46;;;;;;;11.02;9.82;;;;;;;;;;5019516;28;20052;-74
2022/04/16 01:54:12;;;;;;;12.65;10.50;;;;;;;;;;5022223;28;20124;-74
2022/04/16 01:56:38;;;;;;;12.35;10.05;;;;;;;;;;5011450;28;20130;-74
2022/04/16 01:59:04;;;;;;;10.50;9.40;;;;;;;;;;5008599;28;20063;-74
2022/04/16 02:01:32;;;;;;;11.10;10.00;;;;;;;;;;5020560;28;20456;-74
2022/04/16 02:03:59;;;;;;;11.07;9.95;;;;;;;;;;5015590;28;20502;-74
2022/04/16 02:06:25;;;;;;;11.18;10.02;;;;;;;;;;5023048;28;20053;-73
2022/04/16 02:08:51;;;;;;;11.82;9.95;;;;;;;;;;5039048;28;20348;-74
2022/04/16 02:11:18;;;;;;;12.80;10.60;;;;;;;;;;5011056;28;20064;-74
2022/04/16 02:13:44;;;;;;;11.57;10.38;;;;;;;;;;5010477;28;20052;-74
2022/04/16 02:16:10;;;;;;;10.68;9.57;;;;;;;;;;5012502;28;20085;-74
2022/04/16 02:18:36;;;;;;;11.38;10.27;;;;;;;;;;5018907;28;20038;-74
2022/04/16 02:21:03;;;;;;;11.45;10.25;;;;;;;;;;5022154;28;20057;-74
2022/04/16 02:23:29;;;;;;;12.18;10.90;;;;;;;;;;5023523;28;20112;-74
2022/04/16 02:25:55;;;;;;;11.80;10.35;;;;;;;;;;5000654;28;20070;-74
2022/04/16 02:28:24;;;;;;;11.63;10.43;;;;;;;;;;5049748;28;20045;-74
2022/04/16 02:30:50;;;;;;;11.13;9.45;;;;;;;;;;5013171;28;20053;-74
2022/04/16 02:33:16;;;;;;;11.60;9.93;;;;;;;;;;5019228;28;20525;-74
2022/04/16 02:35:42;;;;;;;11.48;10.27;;;;;;;;;;5017249;28;20052;-73
2022/04/16 02:38:08;;;;;;;11.50;10.20;;;;;;;;;;4999449;28;20050;-73
2022/04/16 02:40:34;;;;;;;11.90;10.65;;;;;;;;;;5039436;28;20053;-74
2022/04/16 02:43:00;;;;;;;11.30;10.10;;;;;;;;;;5020396;28;20042;-74
2022/04/16 02:48:11;;;;;;;13.10;10.77;;;;;;;;;;5018150;28;20050;-74
2022/04/16 02:50:37;;;;;;;10.75;9.55;;;;;;;;;;5019643;28;20107;-74
2022/04/16 02:53:03;;;;;;;11.45;10.02;;;;;;;;;;5051857;28;20041;-73
2022/04/16 02:55:29;;;;;;;11.52;10.35;;;;;;;;;;5022587;28;20560;-73
2022/04/16 02:57:55;;;;;;;10.73;9.68;;;;;;;;;;5013636;28;20038;-74
2022/04/16 03:00:22;;;;;;;11.25;10.02;;;;;;;;;;5044918;28;20121;-74
2022/04/16 03:02:50;;;;;;;12.38;10.73;;;;;;;;;;5007918;28;20554;-74
2022/04/16 03:05:16;;;;;;;12.50;10.60;;;;;;;;;;5016777;28;20056;-73
2022/04/16 03:07:42;;;;;;;11.60;10.23;;;;;;;;;;5028091;28;20049;-73
2022/04/16 03:10:08;;;;;;;11.65;10.52;;;;;;;;;;5013415;28;20046;-73
2022/04/16 03:12:45;;;;;;;11.88;10.55;;;;;;;;;;5015403;28;20434;-74
2022/04/16 03:17:56;;;;;;;13.18;10.90;;;;;;;;;;4994328;28;20050;-74
2022/04/16 03:20:22;;;;;;;11.40;10.05;;;;;;;;;;5026529;28;20106;-73
2022/04/16 03:22:48;;;;;;;12.05;10.82;;;;;;;;;;5023556;28;20203;-73
2022/04/16 03:25:16;;;;;;;12.90;10.93;;;;;;;;;;5010956;28;20498;-74
2022/04/16 03:27:43;;;;;;;12.75;11.07;;;;;;;;;;5056551;28;20042;-73
2022/04/16 03:30:09;;;;;;;11.43;10.23;;;;;;;;;;5008443;28;20145;-73
2022/04/16 03:32:39;;;;;;;12.70;11.43;;;;;;;;;;5027111;28;20065;-73
2022/04/16 03:35:07;;;;;;;13.60;11.20;;;;;;;;;;5018160;28;20518;-73
2022/04/16 03:37:33;;;;;;;12.88;11.57;;;;;;;;;;5015370;28;20049;-74
2022/04/16 03:39:59;;;;;;;12.45;11.25;;;;;;;;;;5056959;28;20152;-73
2022/04/16 03:42:25;;;;;;;14.05;12.35;;;;;;;;;;5030262;28;20448;-74
2022/04/16 03:44:53;;;;;;;13.23;11.93;;;;;;;;;;5036412;28;20045;-73
2022/04/16 03:47:20;;;;;;;14.32;12.68;;;;;;;;;;5043542;28;20053;-73
2022/04/16 03:49:46;;;;;;;14.45;12.95;;;;;;;;;;5048301;28;20052;-73
2022/04/16 03:52:12;;;;;;;14.02;12.60;;;;;;;;;;5027447;28;20406;-74
2022/04/16 04:00:08;;;;;;;15.65;13.98;;;;;;;;;;5019884;28;20053;-73
2022/04/16 04:02:36;;;;;;;15.32;13.35;;;;;;;;;;5007311;28;20108;-74
2022/04/16 04:05:04;;;;;;;15.15;13.55;;;;;;;;;;5011717;28;20042;-74
2022/04/16 04:07:30;;;;;;;15.85;14.10;;;;;;;;;;5011413;28;20058;-74
2022/04/16 04:09:56;;;;;;;17.20;14.25;;;;;;;;;;5048481;28;20084;-74
2022/04/16 04:12:22;;;;;;;16.70;14.90;;;;;;;;;;5008697;28;20474;-74
2022/04/16 04:14:48;;;;;;;17.20;15.38;;;;;;;;;;5028903;28;20120;-74
2022/04/16 04:17:15;;;;;;;16.83;15.10;;;;;;;;;;5011881;28;20128;-74
2022/04/16 04:19:42;;;;;;;16.45;14.50;;;;;;;;;;5022689;28;20462;-74
2022/04/16 04:22:08;;;;;;;17.63;15.68;;;;;;;;;;5026296;28;20056;-74
2022/04/16 04:24:36;;;;;;;17.23;15.43;;;;;;;;;;5021864;28;20056;-74
2022/04/16 04:27:02;;;;;;;20.05;16.00;;;;;;;;;;4998933;28;20458;-74
2022/04/16 04:29:28;;;;;;;18.50;16.33;;;;;;;;;;5008128;28;20193;-74
2022/04/16 04:31:55;;;;;;;18.02;15.73;;;;;;;;;;5027943;28;20057;-74
2022/04/16 04:34:21;;;;;;;20.13;17.15;;;;;;;;;;5025469;28;20055;-74
2022/04/16 04:36:47;;;;;;;19.33;16.65;;;;;;;;;;5019558;28;20099;-74
2022/04/16 04:39:13;;;;;;;19.13;17.05;;;;;;;;;;5012811;28;20037;-74
2022/04/16 04:41:42;;;;;;;19.73;17.63;;;;;;;;;;5008784;28;20057;-74
2022/04/16 04:44:08;;;;;;;21.83;18.45;;;;;;;;;;5014315;28;20061;-74
2022/04/16 04:46:34;;;;;;;20.67;17.48;;;;;;;;;;4997755;28;20047;-74
2022/04/16 04:49:00;;;;;;;20.58;17.92;;;;;;;;;;5033736;28;20041;-74
2022/04/16 04:51:26;;;;;;;20.75;18.05;;;;;;;;;;5012516;28;20108;-74
2022/04/16 04:53:52;;;;;;;21.17;18.23;;;;;;;;;;5019470;28;20516;-74
2022/04/16 04:56:18;;;;;;;22.67;18.27;;;;;;;;;;5019319;28;20084;-74
2022/04/16 04:58:44;;;;;;;19.42;17.33;;;;;;;;;;5014585;28;20084;-74
2022/04/16 05:01:10;;;;;;;20.70;17.73;;;;;;;;;;5023932;28;20120;-73
2022/04/16 05:03:36;;;;;;;19.77;17.10;;;;;;;;;;5015736;28;20563;-73
2022/04/16 05:06:02;;;;;;;20.00;17.13;;;;;;;;;;5042484;28;20130;-74
2022/04/16 05:08:28;;;;;;;20.95;17.75;;;;;;;;;;5020502;28;20065;-74
2022/04/16 05:10:54;;;;;;;19.63;17.25;;;;;;;;;;5019177;28;20050;-74
2022/04/16 05:13:20;;;;;;;23.05;18.92;;;;;;;;;;5019069;28;20101;-74
2022/04/16 05:15:46;;;;;;;23.92;18.90;;;;;;;;;;5004407;28;20068;-74
2022/04/16 05:18:12;;;;;;;20.75;18.52;;;;;;;;;;5011501;28;20046;-74
2022/04/16 05:20:38;;;;;;;20.35;18.25;;;;;;;;;;5015461;28;20061;-74
2022/04/16 05:23:04;;;;;;;21.25;17.55;;;;;;;;;;5025520;28;20042;-74
2022/04/16 05:25:30;;;;;;;20.42;18.02;;;;;;;;;;5010198;28;20189;-74
2022/04/16 05:27:56;;;;;;;20.92;17.27;;;;;;;;;;5025160;28;20072;-73
2022/04/16 05:30:25;;;;;;;20.58;17.70;;;;;;;;;;5022249;28;20108;-74
2022/04/16 05:32:51;;;;;;;19.65;17.38;;;;;;;;;;5016238;28;20099;-73
2022/04/16 05:35:17;;;;;;;18.75;16.75;;;;;;;;;;5030214;28;20061;-74
2022/04/16 05:37:44;;;;;;;20.42;18.33;;;;;;;;;;5012823;28;20042;-74
2022/04/16 05:40:10;;;;;;;19.50;17.40;;;;;;;;;;5034683;28;20121;-74
2022/04/16 05:42:43;;;;;;;19.50;17.17;;;;;;;;;;5046795;28;20512;-74
2022/04/16 05:45:10;;;;;;;20.63;18.52;;;;;;;;;;5018699;28;20139;-74
2022/04/16 05:47:36;;;;;;;18.80;16.80;;;;;;;;;;5037465;28;20450;-74
2022/04/16 05:50:02;;;;;;;20.05;17.35;;;;;;;;;;5027484;28;20049;-74
2022/04/16 05:52:29;;;;;;;19.27;16.52;;;;;;;;;;5021651;28;20394;-74
2022/04/16 05:54:55;;;;;;;19.58;17.48;;;;;;;;;;5009836;28;20521;-74
2022/04/16 05:57:22;;;;;;;20.30;17.77;;;;;;;;;;5013871;28;20532;-74
2022/04/16 05:59:49;;;;;;;19.40;17.30;;;;;;;;;;5044871;28;20038;-74
2022/04/16 06:02:15;;;;;;;20.08;17.77;;;;;;;;;;5013891;28;20057;-74
2022/04/16 06:04:41;;;;;;;20.65;18.20;;;;;;;;;;5044379;28;20151;-74
2022/04/16 06:07:07;;;;;;;22.05;19.70;;;;;;;;;;5019142;28;20144;-73
2022/04/16 06:09:33;;;;;;;20.40;18.20;;;;;;;;;;5012670;28;20431;-74
2022/04/16 06:12:03;;;;;;;21.80;19.52;;;;;;;;;;5007763;28;20042;-73
2022/04/16 06:14:29;;;;;;;22.50;19.05;;;;;;;;;;4999393;28;20545;-74
2022/04/16 06:16:56;;;;;;;23.15;19.33;;;;;;;;;;5013846;28;20064;-74
2022/04/16 06:19:22;;;;;;;21.88;19.48;;;;;;;;;;5016673;28;20053;-73
2022/04/16 06:21:48;;;;;;;21.23;18.65;;;;;;;;;;5015598;28;20450;-74
2022/04/16 06:24:14;;;;;;;24.73;19.42;;;;;;;;;;5014637;28;20112;-74
2022/04/16 06:26:42;;;;;;;21.75;18.75;;;;;;;;;;5022657;28;20132;-74
2022/04/16 06:29:08;;;;;;;24.40;21.35;;;;;;;;;;5047827;28;20042;-73
2022/04/16 06:31:34;;;;;;;22.95;20.23;;;;;;;;;;5008316;28;20560;-74
2022/04/16 06:34:03;;;;;;;22.80;19.63;;;;;;;;;;5021379;28;20433;-73
2022/04/16 06:36:29;;;;;;;22.92;19.13;;;;;;;;;;5031497;28;20053;-73
2022/04/16 06:38:55;;;;;;;22.35;19.48;;;;;;;;;;5002722;28;20054;-74
2022/04/16 06:41:21;;;;;;;22.55;20.15;;;;;;;;;;5023084;28;20033;-74
2022/04/16 06:43:47;;;;;;;24.58;20.65;;;;;;;;;;5021303;28;20508;-74
2022/04/16 06:46:13;;;;;;;22.17;19.60;;;;;;;;;;5028077;28;20034;-74
2022/04/16 06:48:39;;;;;;;23.88;20.17;;;;;;;;;;4998766;28;20054;-74
2022/04/16 06:51:05;;;;;;;24.25;20.58;;;;;;;;;;5053045;28;20132;-73
2022/04/16 06:53:31;;;;;;;24.02;20.58;;;;;;;;;;5019807;28;20129;-74
2022/04/16 06:56:00;;;;;;;21.88;19.38;;;;;;;;;;5016891;28;20133;-74
2022/04/16 06:58:28;;;;;;;22.95;19.50;;;;;;;;;;5051414;28;20514;-74
2022/04/16 07:00:54;;;;;;;23.45;19.92;;;;;;;;;;5024849;28;20416;-74
2022/04/16 07:03:20;;;;;;;26.20;22.40;;;;;;;;;;5014332;28;20405;-74
2022/04/16 07:05:46;;;;;;;23.02;20.08;;;;;;;;;;5044202;28;20042;-74
2022/04/16 07:08:12;;;;;;;23.05;20.50;;;;;;;;;;5011245;28;20045;-74
2022/04/16 07:10:39;;;;;;;22.13;19.70;;;;;;;;;;5015219;28;20106;-74
2022/04/16 07:13:06;;;;;;;22.30;19.42;;;;;;;;;;5025232;28;20432;-74
2022/04/16 07:15:33;;;;;;;23.92;20.10;;;;;;;;;;5020015;28;20046;-74
2022/04/16 07:18:00;;;;;;;22.70;20.30;;;;;;;;;;5014126;28;20045;-74
2022/04/16 07:20:26;;;;;;;21.75;19.42;;;;;;;;;;5007844;28;20054;-73
2022/04/16 07:22:52;;;;;;;23.23;20.70;;;;;;;;;;5019157;28;20505;-74
2022/04/16 07:25:20;;;;;;;21.33;18.80;;;;;;;;;;5032484;28;20041;-74
2022/04/16 07:27:46;;;;;;;20.92;18.67;;;;;;;;;;5014568;28;21452;-74
2022/04/16 07:30:12;;;;;;;21.90;19.42;;;;;;;;;;5024043;28;20179;-74
2022/04/16 07:32:38;;;;;;;21.58;18.58;;;;;;;;;;5039742;28;20481;-73
2022/04/16 07:35:05;;;;;;;19.35;17.27;;;;;;;;;;5031096;28;20074;-74
2022/04/16 07:37:31;;;;;;;20.27;17.98;;;;;;;;;;5016774;28;20046;-74
2022/04/16 07:39:57;;;;;;;20.55;18.35;;;;;;;;;;5014616;28;20512;-74
2022/04/16 07:42:26;;;;;;;19.63;17.55;;;;;;;;;;5023243;28;20037;-73
2022/04/16 07:44:52;;;;;;;19.95;16.92;;;;;;;;;;5017280;28;20140;-74
2022/04/16 07:47:18;;;;;;;18.00;15.98;;;;;;;;;;5018799;28;20507;-74
2022/04/16 07:49:44;;;;;;;18.90;16.80;;;;;;;;;;5013345;28;20169;-74
2022/04/16 07:52:10;;;;;;;17.08;14.88;;;;;;;;;;5019040;28;20175;-74
2022/04/16 07:54:37;;;;;;;17.45;15.57;;;;;;;;;;5046205;28;20042;-74
2022/04/16 07:57:09;;;;;;;16.77;15.02;;;;;;;;;;5015321;28;20050;-74
2022/04/16 07:59:35;;;;;;;15.80;14.13;;;;;;;;;;5017697;28;20048;-74
2022/04/16 08:02:01;;;;;;;15.60;14.00;;;;;;;;;;5006623;28;20081;-74
2022/04/16 08:04:27;;;;;;;14.98;12.70;;;;;;;;;;5015782;28;20080;-74
2022/04/16 08:06:53;;;;;;;15.23;13.30;;;;;;;;;;5007704;28;20042;-74
2022/04/16 08:09:19;;;;;;;15.10;13.27;;;;;;;;;;5012699;28;20046;-74
2022/04/16 08:11:48;;;;;;;15.25;13.35;;;;;;;;;;5010302;28;20042;-73
2022/04/16 08:14:14;;;;;;;15.45;13.00;;;;;;;;;;5038699;28;20042;-73
2022/04/16 08:16:40;;;;;;;15.48;13.77;;;;;;;;;;5043897;28;20067;-72
2022/04/16 08:19:06;;;;;;;16.15;13.68;;;;;;;;;;5012326;28;20040;-73
2022/04/16 08:21:34;;;;;;;17.10;13.32;;;;;;;;;;5013800;28;20037;-74
2022/04/16 08:26:44;;;;;;;14.45;12.40;;;;;;;;;;5001274;28;22191;-74
2022/04/16 08:29:11;;;;;;;13.73;11.68;;;;;;;;;;5041853;28;20041;-74
2022/04/16 08:31:36;;;;;;;14.05;12.50;;;;;;;;;;5009453;28;20077;-74
2022/04/16 08:34:03;;;;;;;13.35;11.95;;;;;;;;;;5010473;28;20042;-73
2022/04/16 08:36:29;;;;;;;13.13;11.73;;;;;;;;;;5044232;28;20050;-74
2022/04/16 08:38:55;;;;;;;12.98;11.50;;;;;;;;;;5030200;28;20104;-74
2022/04/16 08:41:23;;;;;;;12.43;10.85;;;;;;;;;;5002502;28;20451;-74
2022/04/16 08:43:49;;;;;;;13.57;11.55;;;;;;;;;;4995793;28;20046;-74
2022/04/16 08:46:16;;;;;;;11.38;9.98;;;;;;;;;;5030596;28;20668;-75
2022/04/16 08:48:42;;;;;;;14.05;11.30;;;;;;;;;;5000458;28;20129;-74
2022/04/16 08:51:09;;;;;;;13.45;11.40;;;;;;;;;;5014228;28;20049;-74
2022/04/16 08:53:35;;;;;;;13.25;10.82;;;;;;;;;;5003918;28;20474;-74
2022/04/16 08:56:01;;;;;;;12.43;10.40;;;;;;;;;;5002362;28;20140;-74
2022/04/16 08:58:29;;;;;;;11.73;10.43;;;;;;;;;;5006787;28;20557;-75
2022/04/16 09:00:56;;;;;;;11.05;9.95;;;;;;;;;;5007644;28;20046;-74
2022/04/16 09:03:22;;;;;;;11.15;9.95;;;;;;;;;;5003816;28;20046;-75
2022/04/16 09:05:54;;;;;;;13.10;11.27;;;;;;;;;;4999009;28;20052;-75
2022/04/16 09:08:28;;;;;;;11.88;9.32;;;;;;;;;;5039655;28;20042;-75
2022/04/16 09:11:04;;;;;;;12.32;9.55;;;;;;;;;;5036074;28;20516;-74
2022/04/16 09:13:30;;;;;;;11.15;9.77;;;;;;;;;;5004530;28;20128;-75
2022/04/16 09:16:10;;;;;;;11.77;9.27;;;;;;;;;;5006675;28;20042;-75
2022/04/16 09:18:50;;;;;;;12.82;9.40;;;;;;;;;;5037098;28;20081;-75
2022/04/16 09:21:16;;;;;;;10.68;9.27;;;;;;;;;;5006210;28;20383;-75
2022/04/16 09:23:50;;;;;;;10.60;9.48;;;;;;;;;;5009041;28;20042;-75
2022/04/16 09:26:46;;;;;;;11.20;9.32;;;;;;;;;;5008832;28;20107;-75
2022/04/16 09:29:14;;;;;;;10.63;9.43;;;;;;;;;;5002282;28;20049;-75
2022/04/16 09:31:41;;;;;;;10.57;9.48;;;;;;;;;;5039559;28;20057;-75
2022/04/16 09:34:07;;;;;;;9.10;8.13;;;;;;;;;;5003481;28;20461;-74
2022/04/16 09:36:38;;;;;;;10.00;8.35;;;;;;;;;;5001302;28;20181;-75
2022/04/16 09:39:05;;;;;;;9.93;8.50;;;;;;;;;;5007454;28;20129;-75
2022/04/16 09:41:32;;;;;;;9.90;8.88;;;;;;;;;;5009397;28;20048;-75
2022/04/16 09:43:58;;;;;;;10.35;9.32;;;;;;;;;;5006179;28;20038;-75
2022/04/16 09:46:26;;;;;;;10.40;9.30;;;;;;;;;;5007380;28;20050;-72
2022/04/16 09:48:53;;;;;;;10.60;8.75;;;;;;;;;;5004945;28;20089;-73
2022/04/16 09:51:19;;;;;;;9.52;8.52;;;;;;;;;;5041176;28;20181;-73
2022/04/16 09:53:46;;;;;;;9.73;8.73;;;;;;;;;;5031985;28;20058;-73
2022/04/16 09:56:13;;;;;;;10.38;8.68;;;;;;;;;;5035260;28;20521;-73
2022/04/16 09:58:43;;;;;;;9.13;8.13;;;;;;;;;;5005730;28;20169;-72
2022/04/16 10:01:10;;;;;;;8.02;7.18;;;;;;;;;;5005379;28;20627;-73
2022/04/16 10:03:39;;;;;;;8.45;7.35;;;;;;;;;;5003374;28;20038;-72
2022/04/16 10:06:05;;;;;;;8.85;7.25;;;;;;;;;;5038591;28;20406;-73
2022/04/16 10:08:31;;;;;;;9.43;8.02;;;;;;;;;;5001338;28;20058;-73
2022/04/16 10:10:58;;;;;;;8.95;7.90;;;;;;;;;;5004603;28;20052;-72
2022/04/16 10:13:24;;;;;;;8.63;7.30;;;;;;;;;;4999962;28;20278;-73
2022/04/16 10:16:09;;;;;;;9.40;6.97;;;;;;;;;;4999017;28;20089;-73
2022/04/16 10:18:35;;;;;;;7.05;6.35;;;;;;;;;;5001313;28;20041;-73
2022/04/16 10:21:02;;;;;;;8.45;7.10;;;;;;;;;;5007205;28;20141;-73
2022/04/16 10:23:33;;;;;;;9.27;7.32;;;;;;;;;;4999900;28;20046;-72
2022/04/16 10:26:06;;;;;;;7.82;7.03;;;;;;;;;;5011869;28;20097;-73
2022/04/16 10:28:43;;;;;;;7.25;6.55;;;;;;;;;;4998614;28;20197;-73
2022/04/16 10:31:21;;;;;;;6.82;6.13;;;;;;;;;;5002547;28;20111;-73
2022/04/16 10:34:05;;;;;;;7.95;6.32;;;;;;;;;;5001693;28;20049;-73
2022/04/16 10:36:36;;;;;;;7.47;6.40;;;;;;;;;;5008426;28;20147;-73
2022/04/16 10:39:12;;;;;;;8.00;6.15;;;;;;;;;;5006291;28;20053;-73
2022/04/16 10:41:39;;;;;;;6.35;5.75;;;;;;;;;;5036097;28;20516;-72
2022/04/16 10:44:08;;;;;;;6.68;5.97;;;;;;;;;;5005267;28;20053;-73
2022/04/16 10:46:46;;;;;;;7.35;6.30;;;;;;;;;;5010960;28;20045;-73
2022/04/16 10:49:12;;;;;;;6.78;5.78;;;;;;;;;;5027637;28;20053;-72
2022/04/16 10:51:39;;;;;;;6.50;5.88;;;;;;;;;;5006118;28;20390;-72
2022/04/16 10:54:09;;;;;;;6.20;5.60;;;;;;;;;;5012724;28;20065;-73
2022/04/16 10:56:39;;;;;;;7.57;5.93;;;;;;;;;;5033035;28;20054;-73
2022/04/16 10:59:05;;;;;;;6.75;5.63;;;;;;;;;;5011283;28;20041;-72
2022/04/16 11:01:31;;;;;;;6.20;5.45;;;;;;;;;;5007910;28;20078;-72
2022/04/16 11:03:58;;;;;;;5.68;5.18;;;;;;;;;;5006222;28;20165;-74
2022/04/16 11:06:34;;;;;;;5.68;4.75;;;;;;;;;;5005534;28;20077;-72
2022/04/16 11:09:01;;;;;;;5.05;4.55;;;;;;;;;;5012293;28;20478;-72
2022/04/16 11:11:27;;;;;;;6.07;5.47;;;;;;;;;;5013260;28;20057;-72
2022/04/16 11:13:53;;;;;;;5.70;5.10;;;;;;;;;;5011345;28;20034;-72
2022/04/16 11:16:22;;;;;;;5.88;5.15;;;;;;;;;;5017241;28;20049;-73
2022/04/16 11:18:48;;;;;;;5.70;5.07;;;;;;;;;;5012683;28;20138;-73
2022/04/16 11:21:21;;;;;;;5.50;5.00;;;;;;;;;;5002191;28;20125;-72
2022/04/16 11:23:48;;;;;;;5.50;4.95;;;;;;;;;;5013665;28;20049;-73
2022/04/16 11:34:34;;;;;;;6.10;5.50;;;;;;;;;;5041548;28;20509;-72
2022/04/16 11:37:03;;;;;;;7.07;5.50;;;;;;;;;;5006698;28;20042;-74
2022/04/16 11:39:30;;;;;;;4.60;4.20;;;;;;;;;;5010758;28;20470;-74
2022/04/16 11:41:57;;;;;;;6.00;5.07;;;;;;;;;;5039739;28;20068;-74
2022/04/16 11:44:29;;;;;;;5.68;5.15;;;;;;;;;;5006011;28;20046;-73
2022/04/16 11:46:55;;;;;;;6.07;5.03;;;;;;;;;;5008481;28;20042;-74
2022/04/16 11:49:22;;;;;;;5.47;4.90;;;;;;;;;;5010344;28;20133;-74
2022/04/16 11:51:48;;;;;;;4.72;4.32;;;;;;;;;;5008872;28;20052;-75
2022/04/16 11:54:14;;;;;;;4.65;4.25;;;;;;;;;;5006114;28;20089;-74
2022/04/16 11:56:49;;;;;;;4.95;4.18;;;;;;;;;;5009023;28;20042;-74
2022/04/16 11:59:22;;;;;;;4.72;4.32;;;;;;;;;;5005558;28;20046;-74
2022/04/16 12:01:56;;;;;;;4.37;3.97;;;;;;;;;;5004475;28;20042;-74
2022/04/16 12:04:32;;;;;;;4.28;3.88;;;;;;;;;;5006069;28;20061;-74
2022/04/16 12:06:58;;;;;;;4.00;3.60;;;;;;;;;;5004276;28;20041;-74
2022/04/16 12:09:24;;;;;;;3.63;3.33;;;;;;;;;;5009932;28;20782;-74
2022/04/16 12:11:54;;;;;;;3.53;3.22;;;;;;;;;;5004919;28;20547;-74
2022/04/16 12:14:23;;;;;;;3.20;3.00;;;;;;;;;;5009053;28;20373;-74
2022/04/16 12:16:57;;;;;;;4.00;2.97;;;;;;;;;;5007335;28;20045;-74
2022/04/16 12:19:23;;;;;;;2.80;2.60;;;;;;;;;;5006025;28;20500;-74
2022/04/16 12:21:52;;;;;;;2.78;2.58;;;;;;;;;;5016286;28;20060;-74
2022/04/16 12:24:25;;;;;;;3.78;2.88;;;;;;;;;;5002052;28;20422;-74
2022/04/16 12:26:51;;;;;;;2.70;2.50;;;;;;;;;;5011620;28;20057;-74
2022/04/16 12:29:18;;;;;;;2.90;2.55;;;;;;;;;;5004565;28;20105;-75
2022/04/16 12:31:55;;;;;;;2.58;2.38;;;;;;;;;;5016313;28;20064;-74
2022/04/16 12:34:22;;;;;;;3.00;2.80;;;;;;;;;;5009995;28;20061;-74
2022/04/16 12:36:48;;;;;;;3.88;2.75;;;;;;;;;;5011564;28;20104;-74
2022/04/16 12:39:13;;;;;;;2.83;2.63;;;;;;;;;;5008713;28;20521;-74
2022/04/16 12:41:39;;;;;;;2.60;2.40;;;;;;;;;;5012833;28;20038;-74
2022/04/16 12:44:05;;;;;;;2.40;2.20;;;;;;;;;;5008831;28;20482;-74
2022/04/16 12:46:31;;;;;;;2.30;2.20;;;;;;;;;;5008027;28;20045;-74
2022/04/16 12:48:58;;;;;;;2.50;2.30;;;;;;;;;;5014648;28;20057;-74
2022/04/16 12:51:25;;;;;;;2.40;2.20;;;;;;;;;;5009017;28;20411;-74
2022/04/16 12:53:51;;;;;;;2.30;2.20;;;;;;;;;;5008247;28;20070;-74
2022/04/16 12:56:17;;;;;;;2.78;1.88;;;;;;;;;;5004615;28;20049;-74
2022/04/16 12:58:43;;;;;;;2.22;2.00;;;;;;;;;;5005156;28;20034;-74
2022/04/16 13:01:09;;;;;;;2.30;2.17;;;;;;;;;;5007868;28;20133;-74
2022/04/16 13:03:35;;;;;;;1.95;1.85;;;;;;;;;;5003381;28;20049;-74
2022/04/16 13:06:02;;;;;;;2.42;2.08;;;;;;;;;;5005350;28;20517;-74
2022/04/16 13:08:30;;;;;;;3.10;2.15;;;;;;;;;;5008135;28;20250;-74
2022/04/16 13:10:56;;;;;;;2.47;2.13;;;;;;;;;;5008692;28;20061;-74
2022/04/16 13:13:23;;;;;;;2.60;2.40;;;;;;;;;;5007876;28;20045;-74
2022/04/16 13:15:52;;;;;;;2.30;2.10;;;;;;;;;;5005777;28;20046;-74
2022/04/16 13:18:18;;;;;;;2.40;2.20;;;;;;;;;;5007522;28;20508;-74
2022/04/16 13:20:44;;;;;;;2.10;2.00;;;;;;;;;;5008707;28;20042;-74
2022/04/16 13:23:10;;;;;;;2.47;2.28;;;;;;;;;;5004461;28;20129;-74
2022/04/16 13:25:36;;;;;;;2.30;2.20;;;;;;;;;;5009430;28;20037;-74
2022/04/16 13:28:02;;;;;;;2.03;1.92;;;;;;;;;;5003053;28;20117;-74
2022/04/16 13:30:28;;;;;;;2.20;2.00;;;;;;;;;;5005103;28;20065;-74
2022/04/16 13:32:54;;;;;;;2.10;2.00;;;;;;;;;;5014929;28;20498;-74
2022/04/16 13:35:21;;;;;;;2.60;2.40;;;;;;;;;;5005360;28;20046;-74
2022/04/16 13:37:47;;;;;;;3.40;2.33;;;;;;;;;;5014241;28;20038;-74
2022/04/16 13:42:58;;;;;;;2.28;2.15;;;;;;;;;;5036328;28;20045;-74
2022/04/16 13:45:24;;;;;;;2.42;2.00;;;;;;;;;;5006954;28;20128;-74
2022/04/16 13:47:50;;;;;;;3.60;1.95;;;;;;;;;;5010688;28;20054;-74
2022/04/16 13:50:16;;;;;;;2.00;1.90;;;;;;;;;;5007884;28;20053;-74
2022/04/16 13:52:42;;;;;;;2.00;1.80;;;;;;;;;;5008072;28;20413;-75
2022/04/16 13:55:08;;;;;;;2.10;2.00;;;;;;;;;;5007990;28;20054;-74
2022/04/16 13:57:41;;;;;;;2.13;1.90;;;;;;;;;;5009279;28;20042;-74
2022/04/16 14:00:07;;;;;;;2.35;2.10;;;;;;;;;;5007562;28;20049;-74
2022/04/16 14:02:33;;;;;;;2.40;2.20;;;;;;;;;;5005164;28;20046;-74
2022/04/16 14:07:47;;;;;;;2.13;2.03;;;;;;;;;;5010120;28;20070;-75
2022/04/16 14:10:13;;;;;;;2.38;2.17;;;;;;;;;;5007210;28;20046;-74
2022/04/16 14:12:39;;;;;;;2.50;2.03;;;;;;;;;;5010794;28;20551;-74
2022/04/16 14:15:08;;;;;;;2.40;2.20;;;;;;;;;;5008167;28;20042;-74
2022/04/16 14:17:34;;;;;;;2.08;1.98;;;;;;;;;;5007029;28;20042;-74
2022/04/16 14:20:00;;;;;;;2.08;1.80;;;;;;;;;;5009959;28;20041;-74
2022/04/16 14:22:26;;;;;;;1.90;1.80;;;;;;;;;;5005422;28;20049;-74
2022/04/16 14:24:52;;;;;;;1.90;1.80;;;;;;;;;;5008557;28;20505;-74
2022/04/16 14:27:18;;;;;;;1.92;1.83;;;;;;;;;;5013857;28;20070;-75
2022/04/16 14:29:44;;;;;;;1.55;1.50;;;;;;;;;;5005872;28;20461;-75
2022/04/16 14:32:11;;;;;;;3.00;1.63;;;;;;;;;;5011744;28;20042;-74
2022/04/16 14:34:37;;;;;;;2.00;1.90;;;;;;;;;;5009113;28;20041;-75
2022/04/16 14:37:03;;;;;;;1.48;1.48;;;;;;;;;;5012268;28;20049;-75
2022/04/16 14:39:29;;;;;;;1.50;1.42;;;;;;;;;;5017357;28;20038;-74
2022/04/16 14:41:55;;;;;;;1.63;1.52;;;;;;;;;;5009846;28;20041;-75
2022/04/16 14:44:21;;;;;;;3.90;1.42;;;;;;;;;;5047820;28;20469;-74
2022/04/16 14:46:47;;;;;;;1.75;1.65;;;;;;;;;;5011108;28;20046;-74
2022/04/16 14:49:15;;;;;;;1.65;1.55;;;;;;;;;;5013622;28;20482;-74
2022/04/16 14:51:43;;;;;;;1.33;1.27;;;;;;;;;;5012683;28;20080;-74
2022/04/16 14:54:09;;;;;;;2.22;1.50;;;;;;;;;;5014346;28;20042;-74
2022/04/16 14:56:35;;;;;;;1.40;1.30;;;;;;;;;;5006017;28;20045;-72